Time;durP1;ratioP1;P1;durP2;ratioP2;P2;SDS_P1;SDS_P2;PMS_P1;PMS_P2;Temp;Humidity;BMP_temperature;BMP_pressure;BME280_temperature;BME280_humidity;BME280_pressure;Samples;Min_cycle;Max_cycle;Signal;HPM_P1;HPM_P2
2023/11/18 00:01:32;;;;;;;37.40;23.73;;;7.20;99.90;;;;;;4896768;29;38002;-80
2023/11/18 00:03:58;;;;;;;36.40;20.77;;;7.30;99.90;;;;;;4892755;29;37615;-79
2023/11/18 00:06:24;;;;;;;48.33;27.97;;;7.30;99.90;;;;;;4896915;29;36881;-77
2023/11/18 00:08:50;;;;;;;40.93;25.57;;;7.30;99.90;;;;;;4897433;29;36678;-77
2023/11/18 00:11:16;;;;;;;46.47;27.23;;;7.30;99.90;;;;;;4891617;29;38661;-77
2023/11/18 00:13:42;;;;;;;48.47;26.43;;;7.30;99.90;;;;;;4911423;29;40821;-78
2023/11/18 00:16:12;;;;;;;34.23;24.93;;;7.30;99.90;;;;;;4896030;29;37479;-77
2023/11/18 00:18:42;;;;;;;45.43;25.43;;;7.30;99.90;;;;;;4896856;29;36410;-77
2023/11/18 00:21:08;;;;;;;38.97;24.23;;;7.20;99.90;;;;;;4909803;29;38958;-76
2023/11/18 00:23:35;;;;;;;32.47;23.40;;;7.20;99.90;;;;;;4914640;28;38659;-77
2023/11/18 00:26:01;;;;;;;33.23;22.70;;;7.20;99.90;;;;;;4907136;29;39075;-78
2023/11/18 00:28:28;;;;;;;46.13;26.10;;;7.20;99.90;;;;;;4893731;29;47438;-78
2023/11/18 00:30:54;;;;;;;37.97;23.57;;;7.10;99.90;;;;;;4896792;29;38052;-78
2023/11/18 00:33:20;;;;;;;37.97;25.67;;;7.10;99.90;;;;;;4890732;29;39681;-77
2023/11/18 00:35:46;;;;;;;33.70;23.93;;;7.20;99.90;;;;;;4914934;29;39817;-78
2023/11/18 00:38:12;;;;;;;36.07;24.30;;;7.30;99.90;;;;;;4897539;29;36632;-78
2023/11/18 00:40:38;;;;;;;42.17;25.23;;;7.30;99.90;;;;;;4899584;29;37919;-78
2023/11/18 00:43:04;;;;;;;36.10;24.57;;;7.40;99.90;;;;;;4895479;29;38813;-77
2023/11/18 00:45:30;;;;;;;39.20;26.80;;;7.40;99.90;;;;;;4911367;29;39087;-78
2023/11/18 00:47:56;;;;;;;45.43;28.97;;;7.40;99.90;;;;;;4910249;29;37211;-76
2023/11/18 00:50:23;;;;;;;33.67;25.87;;;7.40;99.90;;;;;;4908698;29;38672;-78
2023/11/18 00:52:49;;;;;;;43.43;28.73;;;7.40;99.90;;;;;;4902901;29;39260;-78
2023/11/18 00:55:18;;;;;;;47.07;30.50;;;7.40;99.90;;;;;;4896260;29;38051;-78
2023/11/18 00:57:45;;;;;;;35.50;26.50;;;7.40;99.90;;;;;;4919294;29;37592;-78
2023/11/18 01:00:16;;;;;;;32.10;24.00;;;7.40;99.90;;;;;;4912711;29;39379;-77
2023/11/18 01:02:43;;;;;;;36.63;24.37;;;7.40;99.90;;;;;;4895300;29;37580;-78
2023/11/18 01:05:10;;;;;;;41.50;27.17;;;7.50;99.90;;;;;;4895224;29;37021;-77
2023/11/18 01:07:40;;;;;;;40.90;27.40;;;7.50;99.90;;;;;;4897564;29;36294;-77
2023/11/18 01:10:08;;;;;;;38.10;26.07;;;7.50;99.90;;;;;;4906343;29;38169;-77
2023/11/18 01:12:34;;;;;;;40.27;27.57;;;7.50;99.90;;;;;;4907382;29;38185;-77
2023/11/18 01:15:00;;;;;;;53.37;30.77;;;7.50;99.90;;;;;;4900439;29;37081;-76
2023/11/18 01:17:26;;;;;;;45.77;28.30;;;7.50;99.90;;;;;;4908445;29;38054;-77
2023/11/18 01:19:53;;;;;;;42.87;26.33;;;7.50;99.90;;;;;;4892784;29;38925;-77
2023/11/18 01:22:19;;;;;;;45.20;26.57;;;7.50;99.90;;;;;;4905655;29;38226;-77
2023/11/18 01:24:45;;;;;;;53.23;31.00;;;7.50;99.90;;;;;;4899843;29;36815;-77
2023/11/18 01:27:12;;;;;;;45.50;28.10;;;7.50;99.90;;;;;;4914255;29;37965;-78
2023/11/18 01:29:39;;;;;;;42.83;26.23;;;7.60;99.90;;;;;;4894829;29;38179;-77
2023/11/18 01:32:08;;;;;;;42.57;26.80;;;7.50;99.90;;;;;;4892667;29;38418;-77
2023/11/18 01:34:39;;;;;;;41.97;26.83;;;7.60;99.90;;;;;;4905493;29;37119;-76
2023/11/18 01:37:07;;;;;;;41.60;26.40;;;7.60;99.90;;;;;;4902355;29;37164;-77
2023/11/18 01:39:34;;;;;;;44.97;24.27;;;7.50;99.90;;;;;;4910853;29;39198;-77
2023/11/18 01:42:00;;;;;;;45.10;26.10;;;7.60;99.90;;;;;;4911813;29;39314;-77
2023/11/18 01:44:28;;;;;;;54.20;25.03;;;7.60;99.90;;;;;;4903773;29;37983;-76
2023/11/18 01:46:58;;;;;;;44.67;24.67;;;7.60;99.90;;;;;;4897269;29;36223;-77
2023/11/18 01:49:27;;;;;;;39.13;23.47;;;7.60;99.90;;;;;;4893602;29;37780;-77
2023/11/18 01:51:54;;;;;;;38.83;24.97;;;7.60;99.90;;;;;;4903258;29;42123;-77
2023/11/18 01:54:21;;;;;;;46.17;26.30;;;7.60;99.90;;;;;;4888210;29;38220;-76
2023/11/18 01:56:48;;;;;;;40.03;24.03;;;7.60;99.90;;;;;;4905839;29;38146;-77
2023/11/18 01:59:18;;;;;;;38.97;24.00;;;7.50;99.90;;;;;;4896227;29;37982;-77
2023/11/18 02:04:21;;;;;;;35.57;22.27;;;7.60;99.90;;;;;;4361658;23;20056;-76
2023/11/18 02:06:51;;;;;;;41.57;23.97;;;7.60;99.90;;;;;;4936176;28;36165;-76
2023/11/18 02:09:27;;;;;;;42.80;25.53;;;7.60;99.90;;;;;;4935470;28;37518;-75
2023/11/18 02:11:56;;;;;;;36.97;21.60;;;7.60;99.90;;;;;;4939799;28;38574;-76
2023/11/18 02:14:28;;;;;;;38.80;22.37;;;7.60;99.90;;;;;;4938215;28;39097;-76
2023/11/18 02:16:59;;;;;;;33.03;20.00;;;7.70;99.90;;;;;;4941641;28;37208;-75
2023/11/18 02:19:26;;;;;;;31.60;19.50;;;7.60;99.90;;;;;;4933793;28;37316;-75
2023/11/18 02:21:54;;;;;;;33.07;20.43;;;7.70;99.90;;;;;;4947854;28;38326;-75
2023/11/18 02:24:27;;;;;;;36.67;22.40;;;7.70;99.90;;;;;;4941599;28;40106;-75
2023/11/18 02:26:56;;;;;;;27.90;18.00;;;7.70;99.90;;;;;;4940255;28;36640;-75
2023/11/18 02:29:22;;;;;;;39.63;20.40;;;7.70;99.90;;;;;;4960514;28;39747;-75
2023/11/18 02:31:53;;;;;;;30.77;20.57;;;7.60;99.90;;;;;;4936584;28;37534;-75
2023/11/18 02:34:26;;;;;;;37.03;21.27;;;7.60;99.90;;;;;;4950503;28;38617;-77
2023/11/18 02:37:00;;;;;;;33.10;19.47;;;7.60;99.90;;;;;;4932976;28;37391;-76
2023/11/18 02:39:39;;;;;;;32.03;20.73;;;7.60;99.90;;;;;;4955264;28;39796;-76
2023/11/18 02:42:09;;;;;;;32.27;17.93;;;7.60;99.90;;;;;;4934904;28;37265;-76
2023/11/18 02:44:36;;;;;;;38.03;21.30;;;7.50;99.90;;;;;;4953628;28;36921;-76
2023/11/18 02:47:06;;;;;;;30.33;19.57;;;7.50;99.90;;;;;;4935350;28;38450;-76
2023/11/18 02:49:35;;;;;;;27.43;17.23;;;7.50;99.90;;;;;;4943486;28;39326;-76
2023/11/18 02:52:02;;;;;;;31.43;16.87;;;7.50;99.90;;;;;;4949828;28;38708;-76
2023/11/18 02:54:28;;;;;;;23.73;15.73;;;7.50;99.90;;;;;;4952091;28;39001;-76
2023/11/18 02:56:54;;;;;;;32.73;17.43;;;7.50;99.90;;;;;;4936202;28;36303;-75
2023/11/18 02:59:20;;;;;;;28.47;16.47;;;7.50;99.90;;;;;;4937341;28;37753;-76
2023/11/18 03:01:47;;;;;;;26.60;14.87;;;7.50;99.90;;;;;;4954470;28;38978;-76
2023/11/18 03:04:14;;;;;;;28.50;17.63;;;7.40;99.90;;;;;;4952410;28;37066;-75
2023/11/18 03:06:41;;;;;;;27.30;15.67;;;7.50;99.90;;;;;;4935493;28;36281;-76
2023/11/18 03:09:10;;;;;;;31.93;18.87;;;7.40;99.90;;;;;;4934773;28;38668;-76
2023/11/18 03:11:36;;;;;;;25.27;17.63;;;7.40;99.90;;;;;;4950690;28;39542;-76
2023/11/18 03:14:04;;;;;;;25.60;15.70;;;7.40;99.90;;;;;;4942195;28;37108;-76
2023/11/18 03:16:30;;;;;;;29.80;17.00;;;7.40;99.90;;;;;;4952224;28;36461;-76
2023/11/18 03:18:58;;;;;;;36.00;19.30;;;7.40;99.90;;;;;;4941247;28;37611;-76
2023/11/18 03:21:24;;;;;;;30.60;16.77;;;7.40;99.90;;;;;;4939487;28;37390;-77
2023/11/18 03:23:50;;;;;;;28.80;18.37;;;7.40;99.90;;;;;;4940461;28;37101;-76
2023/11/18 03:26:16;;;;;;;29.53;17.73;;;7.30;99.90;;;;;;4938200;28;37241;-76
2023/11/18 03:28:42;;;;;;;37.03;17.80;;;7.30;99.90;;;;;;4958311;28;38727;-76
2023/11/18 03:31:09;;;;;;;26.77;17.10;;;7.40;99.90;;;;;;4960163;28;37942;-76
2023/11/18 03:33:35;;;;;;;28.87;18.80;;;7.30;99.90;;;;;;4963846;28;37749;-76
2023/11/18 03:36:01;;;;;;;30.63;19.17;;;7.40;99.90;;;;;;4938082;28;36720;-75
2023/11/18 03:38:30;;;;;;;37.17;19.20;;;7.30;99.90;;;;;;4957324;28;46845;-76
2023/11/18 03:40:58;;;;;;;28.40;17.87;;;7.40;99.90;;;;;;4932253;28;38472;-75
2023/11/18 03:43:24;;;;;;;31.40;20.13;;;7.40;99.90;;;;;;4931901;28;38643;-76
2023/11/18 03:45:52;;;;;;;37.30;21.33;;;7.40;99.90;;;;;;4937810;28;36506;-76
2023/11/18 03:48:18;;;;;;;39.00;22.17;;;7.40;99.90;;;;;;4942436;28;38009;-76
2023/11/18 03:50:44;;;;;;;29.60;20.43;;;7.40;99.90;;;;;;4955167;28;38117;-76
2023/11/18 03:53:11;;;;;;;34.90;20.37;;;7.40;99.90;;;;;;4940301;28;37297;-76
2023/11/18 03:55:37;;;;;;;37.37;20.30;;;7.40;99.90;;;;;;4947220;28;36167;-76
2023/11/18 03:58:03;;;;;;;37.20;22.00;;;7.40;99.90;;;;;;4950685;28;38845;-75
2023/11/18 04:00:31;;;;;;;37.77;21.90;;;7.40;99.90;;;;;;4955703;28;38353;-76
2023/11/18 04:02:58;;;;;;;28.13;19.07;;;7.40;99.90;;;;;;4957156;28;37536;-76
2023/11/18 04:05:24;;;;;;;28.53;20.97;;;7.40;99.90;;;;;;4939182;28;36472;-75
2023/11/18 04:07:50;;;;;;;39.17;21.20;;;7.40;99.90;;;;;;4938523;28;37495;-75
2023/11/18 04:10:18;;;;;;;39.73;22.00;;;7.40;99.90;;;;;;4933665;28;36961;-76
2023/11/18 04:12:48;;;;;;;35.57;21.10;;;7.40;99.90;;;;;;4965462;28;39258;-75
2023/11/18 04:15:15;;;;;;;34.13;21.70;;;7.40;99.90;;;;;;4949967;28;37894;-75
2023/11/18 04:17:43;;;;;;;33.40;21.50;;;7.50;99.90;;;;;;4939375;28;37711;-75
2023/11/18 04:20:11;;;;;;;29.47;20.53;;;7.40;99.90;;;;;;4950741;28;39109;-75
2023/11/18 04:22:44;;;;;;;33.97;21.40;;;7.50;99.90;;;;;;4936572;28;37785;-75
2023/11/18 04:25:11;;;;;;;32.93;19.83;;;7.40;99.90;;;;;;4952796;28;36777;-75
2023/11/18 04:27:38;;;;;;;28.40;18.80;;;7.50;99.90;;;;;;4960504;28;38774;-76
2023/11/18 04:30:05;;;;;;;35.43;20.27;;;7.50;99.90;;;;;;4969527;28;38277;-76
2023/11/18 04:32:32;;;;;;;44.03;20.37;;;7.50;99.90;;;;;;4949979;28;38225;-74
2023/11/18 04:35:00;;;;;;;34.23;20.67;;;7.50;99.90;;;;;;4970459;28;37778;-75
2023/11/18 04:37:26;;;;;;;35.93;20.73;;;7.40;99.90;;;;;;4940850;28;37785;-75
2023/11/18 04:39:55;;;;;;;32.17;19.40;;;7.50;99.90;;;;;;4936804;28;37412;-75
2023/11/18 04:42:21;;;;;;;33.33;20.67;;;7.50;99.90;;;;;;4953474;28;38802;-76
2023/11/18 04:44:47;;;;;;;30.43;17.17;;;7.50;99.90;;;;;;4949173;28;36011;-75
2023/11/18 04:47:13;;;;;;;33.77;20.53;;;7.50;99.90;;;;;;4935210;28;38894;-75
2023/11/18 04:49:40;;;;;;;32.87;20.00;;;7.50;99.90;;;;;;4950923;28;38054;-76
2023/11/18 04:52:06;;;;;;;32.87;20.70;;;7.50;99.90;;;;;;4931313;28;37013;-75
2023/11/18 04:54:32;;;;;;;26.93;18.90;;;7.40;99.90;;;;;;4951845;28;36550;-75
2023/11/18 04:56:58;;;;;;;26.23;17.80;;;7.50;99.90;;;;;;4955995;28;40414;-76
2023/11/18 04:59:24;;;;;;;29.80;19.43;;;7.40;99.90;;;;;;4941825;28;37914;-75
2023/11/18 05:01:52;;;;;;;33.80;19.30;;;7.40;99.90;;;;;;4956292;28;38369;-75
2023/11/18 05:04:19;;;;;;;32.63;19.27;;;7.40;99.90;;;;;;4957329;28;37316;-76
2023/11/18 05:06:45;;;;;;;30.70;18.87;;;7.40;99.90;;;;;;4943857;28;39009;-76
2023/11/18 05:09:11;;;;;;;28.73;17.90;;;7.40;99.90;;;;;;4954929;28;38605;-76
2023/11/18 05:11:38;;;;;;;26.63;16.07;;;7.40;99.90;;;;;;4953602;28;38752;-76
2023/11/18 05:14:04;;;;;;;24.57;17.20;;;7.40;99.90;;;;;;4935847;28;38077;-76
2023/11/18 05:16:31;;;;;;;31.10;19.77;;;7.40;99.90;;;;;;4933884;28;38986;-75
2023/11/18 05:18:57;;;;;;;26.93;17.73;;;7.50;99.90;;;;;;4952898;28;39214;-76
2023/11/18 05:21:23;;;;;;;37.63;19.60;;;7.40;99.90;;;;;;4926838;28;36905;-76
2023/11/18 05:23:50;;;;;;;29.30;18.30;;;7.40;99.90;;;;;;4934147;28;36457;-76
2023/11/18 05:26:16;;;;;;;26.53;16.97;;;7.50;99.90;;;;;;4948788;28;38859;-76
2023/11/18 05:28:45;;;;;;;25.60;16.40;;;7.40;99.90;;;;;;4934242;28;38526;-76
2023/11/18 05:31:11;;;;;;;36.67;18.73;;;7.50;99.90;;;;;;4933674;28;38769;-76
2023/11/18 05:33:38;;;;;;;24.97;16.40;;;7.50;99.90;;;;;;4949939;28;37189;-76
2023/11/18 05:36:05;;;;;;;32.53;16.13;;;7.40;99.90;;;;;;4923983;28;39453;-76
2023/11/18 05:38:34;;;;;;;29.27;16.47;;;7.40;99.90;;;;;;4953992;28;38225;-75
2023/11/18 05:41:03;;;;;;;35.33;18.53;;;7.40;99.90;;;;;;4952070;28;37786;-75
2023/11/18 05:43:40;;;;;;;21.97;14.70;;;7.50;99.90;;;;;;4932262;28;47261;-76
2023/11/18 05:46:24;;;;;;;26.10;15.17;;;7.50;99.90;;;;;;4931182;28;37768;-76
2023/11/18 05:48:50;;;;;;;25.87;14.60;;;7.50;99.90;;;;;;4932843;28;38735;-76
2023/11/18 05:51:24;;;;;;;22.63;13.33;;;7.50;99.90;;;;;;4934138;28;37967;-75
2023/11/18 05:53:51;;;;;;;26.10;15.90;;;7.50;99.90;;;;;;4928272;28;36668;-76
2023/11/18 05:56:18;;;;;;;27.83;15.07;;;7.40;99.90;;;;;;4947122;28;38896;-76
2023/11/18 05:58:45;;;;;;;25.47;14.93;;;7.50;99.90;;;;;;4933285;28;37166;-76
2023/11/18 06:01:16;;;;;;;31.13;14.53;;;7.50;99.90;;;;;;4944221;28;36935;-75
2023/11/18 06:03:43;;;;;;;26.03;15.30;;;7.50;99.90;;;;;;4938616;28;37675;-76
2023/11/18 06:06:11;;;;;;;34.27;13.57;;;7.50;99.90;;;;;;4934354;28;37677;-76
2023/11/18 06:08:40;;;;;;;27.67;13.77;;;7.50;99.90;;;;;;4958745;28;37207;-74
2023/11/18 06:11:13;;;;;;;29.90;14.23;;;7.50;99.90;;;;;;4951212;28;37901;-75
2023/11/18 06:13:46;;;;;;;24.40;13.13;;;7.50;99.90;;;;;;4948749;28;37371;-75
2023/11/18 06:16:14;;;;;;;36.70;13.80;;;7.60;99.90;;;;;;4939413;28;37790;-75
2023/11/18 06:18:44;;;;;;;29.07;12.93;;;7.60;99.90;;;;;;4932426;28;35917;-76
2023/11/18 06:21:14;;;;;;;26.53;12.77;;;7.60;99.90;;;;;;4954340;28;38598;-77
2023/11/18 06:23:41;;;;;;;28.37;12.90;;;7.60;99.90;;;;;;4956449;28;37587;-76
2023/11/18 06:26:11;;;;;;;27.20;13.87;;;7.60;99.90;;;;;;4945168;28;39079;-77
2023/11/18 06:28:43;;;;;;;27.73;14.20;;;7.60;99.90;;;;;;4950589;28;37998;-75
2023/11/18 06:31:11;;;;;;;27.17;13.43;;;7.60;99.90;;;;;;4938702;28;37115;-76
2023/11/18 06:33:44;;;;;;;33.83;13.70;;;7.60;99.90;;;;;;4956721;28;38642;-75
2023/11/18 06:36:14;;;;;;;33.77;14.00;;;7.60;99.90;;;;;;4953500;28;38696;-75
2023/11/18 06:38:40;;;;;;;31.90;13.93;;;7.60;99.90;;;;;;4939096;28;37954;-76
2023/11/18 06:41:12;;;;;;;30.03;14.17;;;7.60;99.90;;;;;;4944963;28;37928;-75
2023/11/18 06:46:25;;;;;;;35.03;12.98;;;7.60;99.90;;;;;;4948917;28;38788;-76
2023/11/18 06:48:57;;;;;;;30.63;13.67;;;7.60;99.90;;;;;;4954638;28;39148;-76
2023/11/18 06:51:24;;;;;;;25.87;11.77;;;7.60;99.90;;;;;;4933068;28;37241;-76
2023/11/18 06:53:51;;;;;;;31.23;13.47;;;7.60;99.90;;;;;;4957947;28;38478;-75
2023/11/18 06:56:18;;;;;;;31.07;13.10;;;7.60;99.90;;;;;;4950489;28;38856;-75
2023/11/18 06:58:44;;;;;;;26.77;13.50;;;7.60;99.90;;;;;;4922641;28;38612;-75
2023/11/18 07:01:14;;;;;;;26.23;13.07;;;7.60;99.90;;;;;;4932738;28;38189;-75
2023/11/18 07:03:44;;;;;;;28.00;12.87;;;7.60;99.90;;;;;;4952531;28;39240;-75
2023/11/18 07:06:11;;;;;;;32.23;12.63;;;7.60;99.90;;;;;;4931075;28;41269;-74
2023/11/18 07:08:37;;;;;;;27.57;12.47;;;7.60;99.90;;;;;;4951714;28;38392;-75
2023/11/18 07:11:04;;;;;;;27.73;12.93;;;7.60;99.90;;;;;;4921014;28;36935;-76
2023/11/18 07:13:30;;;;;;;26.13;12.57;;;7.60;99.90;;;;;;4944562;28;36958;-76
2023/11/18 07:15:57;;;;;;;27.10;11.80;;;7.60;99.90;;;;;;4942439;28;38910;-75
2023/11/18 07:18:24;;;;;;;31.33;12.57;;;7.60;99.90;;;;;;4932061;28;37545;-76
2023/11/18 07:20:53;;;;;;;23.60;11.93;;;7.60;99.90;;;;;;4952113;28;38198;-75
2023/11/18 07:23:19;;;;;;;22.83;11.60;;;7.60;99.90;;;;;;4944566;28;38590;-75
2023/11/18 07:25:46;;;;;;;26.43;11.00;;;7.60;99.90;;;;;;4943275;28;37755;-76
2023/11/18 07:28:14;;;;;;;24.33;10.60;;;7.60;99.90;;;;;;4940258;28;38287;-75
2023/11/18 07:30:42;;;;;;;24.27;10.90;;;7.60;99.90;;;;;;4946132;28;38231;-75
2023/11/18 07:33:08;;;;;;;21.33;10.10;;;7.70;99.90;;;;;;4947900;28;37225;-76
2023/11/18 07:35:36;;;;;;;23.33;10.60;;;7.70;99.90;;;;;;4929013;28;38815;-75
2023/11/18 07:38:02;;;;;;;27.87;10.63;;;7.60;99.90;;;;;;4948144;28;39792;-76
2023/11/18 07:40:29;;;;;;;21.80;10.63;;;7.70;99.90;;;;;;4938803;28;47013;-76
2023/11/18 07:43:01;;;;;;;24.90;11.03;;;7.70;99.90;;;;;;4952447;28;36657;-76
2023/11/18 07:45:28;;;;;;;21.67;10.13;;;7.70;99.90;;;;;;4947041;28;48685;-77
2023/11/18 07:47:55;;;;;;;24.73;10.37;;;7.70;99.90;;;;;;4936362;28;36500;-76
2023/11/18 07:50:21;;;;;;;24.27;11.03;;;7.70;99.90;;;;;;4957459;28;38039;-77
2023/11/18 07:52:48;;;;;;;24.97;10.43;;;7.70;99.90;;;;;;4935030;28;36455;-77
2023/11/18 07:55:15;;;;;;;19.37;9.90;;;7.70;99.90;;;;;;4951460;28;38991;-77
2023/11/18 07:57:42;;;;;;;28.30;10.17;;;7.80;99.90;;;;;;4954171;28;38292;-76
2023/11/18 08:00:09;;;;;;;19.30;9.00;;;7.80;99.90;;;;;;4935543;28;37826;-75
2023/11/18 08:02:36;;;;;;;22.87;9.27;;;7.70;99.90;;;;;;4931284;28;36228;-75
2023/11/18 08:05:24;;;;;;;22.37;9.00;;;7.80;99.90;;;;;;4933754;28;38294;-75
2023/11/18 08:07:50;;;;;;;24.23;9.93;;;7.70;99.90;;;;;;4948432;28;49583;-76
2023/11/18 08:10:18;;;;;;;17.57;8.90;;;7.70;99.90;;;;;;4940501;28;37840;-76
2023/11/18 08:12:46;;;;;;;27.90;10.57;;;7.70;99.90;;;;;;4952450;28;36977;-76
2023/11/18 08:15:13;;;;;;;18.90;9.17;;;7.70;99.90;;;;;;4953513;28;39374;-76
2023/11/18 08:17:39;;;;;;;13.43;7.57;;;7.80;99.90;;;;;;4935510;28;38084;-76
2023/11/18 08:20:15;;;;;;;26.67;10.50;;;7.70;99.90;;;;;;4934789;28;37171;-75
2023/11/18 08:22:45;;;;;;;21.47;9.93;;;7.70;99.90;;;;;;4935520;28;37112;-76
2023/11/18 08:25:12;;;;;;;26.57;10.50;;;7.70;99.90;;;;;;4953021;28;39468;-76
2023/11/18 08:27:40;;;;;;;22.10;9.20;;;7.70;99.90;;;;;;4939497;28;37862;-76
2023/11/18 08:30:11;;;;;;;20.23;8.43;;;7.80;99.90;;;;;;4940063;28;37693;-76
2023/11/18 08:32:44;;;;;;;22.43;7.73;;;7.70;99.90;;;;;;4937749;28;37134;-76
2023/11/18 08:35:13;;;;;;;24.37;7.97;;;7.80;99.90;;;;;;4944672;28;40233;-76
2023/11/18 08:37:40;;;;;;;27.00;8.87;;;7.80;99.90;;;;;;4938708;28;38286;-75
2023/11/18 08:40:20;;;;;;;20.20;8.33;;;7.80;99.90;;;;;;4912022;28;37997;-75
2023/11/18 08:42:49;;;;;;;27.27;7.80;;;7.80;99.90;;;;;;4914461;28;36018;-75
2023/11/18 08:45:21;;;;;;;15.73;6.93;;;7.90;99.90;;;;;;4938113;28;37837;-76
2023/11/18 08:47:48;;;;;;;24.20;7.00;;;7.90;99.90;;;;;;4922361;28;37511;-76
2023/11/18 08:50:16;;;;;;;17.53;7.60;;;7.90;99.90;;;;;;4922381;28;36237;-75
2023/11/18 08:52:52;;;;;;;24.93;7.50;;;7.90;99.90;;;;;;4920551;28;35113;-75
2023/11/18 08:55:20;;;;;;;14.63;6.73;;;7.90;99.90;;;;;;4919140;28;37910;-75
2023/11/18 08:57:57;;;;;;;17.20;7.50;;;7.90;99.90;;;;;;4918256;28;38797;-76
2023/11/18 09:00:48;;;;;;;25.40;6.87;;;8.00;99.90;;;;;;4933049;28;38249;-76
2023/11/18 09:03:17;;;;;;;17.17;7.50;;;8.00;99.90;;;;;;4937614;28;36528;-76
2023/11/18 09:05:56;;;;;;;23.47;7.13;;;8.00;99.90;;;;;;4922502;28;38014;-75
2023/11/18 09:08:35;;;;;;;24.80;6.93;;;8.10;99.90;;;;;;4936314;28;38672;-77
2023/11/18 09:11:06;;;;;;;20.57;6.10;;;8.10;99.90;;;;;;4911603;28;37859;-75
2023/11/18 09:13:36;;;;;;;20.80;5.80;;;8.10;99.90;;;;;;4918447;28;47783;-76
2023/11/18 09:16:13;;;;;;;19.13;5.90;;;8.10;99.90;;;;;;4924432;28;35458;-76
2023/11/18 09:18:41;;;;;;;16.30;5.43;;;8.10;99.90;;;;;;4919149;28;47337;-77
2023/11/18 09:21:14;;;;;;;21.90;6.87;;;8.10;99.90;;;;;;4922929;28;37053;-76
2023/11/18 09:23:42;;;;;;;17.52;5.95;;;8.20;99.90;;;;;;4939511;28;36578;-76
2023/11/18 09:26:10;;;;;;;13.03;6.70;;;8.20;99.90;;;;;;4922486;28;35378;-76
2023/11/18 09:28:37;;;;;;;18.50;5.57;;;8.20;99.90;;;;;;4939747;28;37362;-76
2023/11/18 09:31:05;;;;;;;16.57;5.93;;;8.20;99.90;;;;;;4920134;28;38258;-76
2023/11/18 09:33:32;;;;;;;15.33;6.07;;;8.20;99.90;;;;;;4937016;28;38254;-77
2023/11/18 09:36:12;;;;;;;20.67;5.83;;;8.30;99.90;;;;;;4938357;28;41325;-76
2023/11/18 09:38:42;;;;;;;15.93;5.77;;;8.30;99.90;;;;;;4925565;28;47512;-76
2023/11/18 09:41:11;;;;;;;16.33;5.10;;;8.30;99.90;;;;;;4930598;28;36862;-78
2023/11/18 09:43:52;;;;;;;19.60;6.50;;;8.30;99.90;;;;;;4940780;28;37985;-75
2023/11/18 09:46:32;;;;;;;20.97;5.60;;;8.30;99.90;;;;;;4917502;28;37316;-75
2023/11/18 09:49:33;;;;;;;15.10;4.80;;;8.40;99.90;;;;;;4932485;28;39225;-75
2023/11/18 09:52:03;;;;;;;14.47;4.73;;;8.40;99.90;;;;;;4918725;28;47286;-74
2023/11/18 09:55:02;;;;;;;18.47;5.03;;;8.40;99.90;;;;;;4939355;28;46911;-75
2023/11/18 09:57:39;;;;;;;16.53;5.20;;;8.40;99.90;;;;;;4919651;28;37273;-76
2023/11/18 10:00:26;;;;;;;18.80;4.93;;;8.40;99.90;;;;;;4923150;28;37106;-75
2023/11/18 10:02:55;;;;;;;21.73;5.00;;;8.40;99.90;;;;;;4939788;28;40713;-75
2023/11/18 10:05:22;;;;;;;21.60;4.93;;;8.40;99.90;;;;;;4921756;28;37557;-76
2023/11/18 10:07:49;;;;;;;14.73;5.07;;;8.40;99.90;;;;;;4922845;28;37715;-75
2023/11/18 10:10:16;;;;;;;10.87;4.60;;;8.40;99.90;;;;;;4923876;28;39300;-75
2023/11/18 10:12:52;;;;;;;17.50;4.63;;;8.50;99.90;;;;;;4937095;28;38022;-76
2023/11/18 10:15:25;;;;;;;14.53;4.87;;;8.50;99.90;;;;;;4947002;28;36362;-76
2023/11/18 10:17:59;;;;;;;14.47;5.50;;;8.50;99.90;;;;;;4938735;28;39801;-77
2023/11/18 10:20:47;;;;;;;16.57;4.60;;;8.50;99.90;;;;;;4923833;28;37798;-76
2023/11/18 10:23:19;;;;;;;16.53;5.93;;;8.50;99.90;;;;;;4934887;28;37989;-76
2023/11/18 10:25:53;;;;;;;13.07;5.03;;;8.60;99.90;;;;;;4926623;28;36156;-78
2023/11/18 10:28:29;;;;;;;13.70;4.93;;;8.50;99.90;;;;;;4927729;28;39085;-79
2023/11/18 10:31:04;;;;;;;15.87;5.23;;;8.50;99.90;;;;;;4925593;28;38124;-79
2023/11/18 10:33:37;;;;;;;26.07;6.30;;;8.60;99.90;;;;;;4983822;23;49118;-77
2023/11/18 10:36:12;;;;;;;25.93;6.37;;;8.60;99.90;;;;;;4936234;28;36550;-79
2023/11/18 10:38:49;;;;;;;16.27;5.53;;;8.60;99.90;;;;;;4939064;28;38402;-77
2023/11/18 10:41:19;;;;;;;17.13;5.63;;;8.60;99.90;;;;;;4931338;28;36825;-79
2023/11/18 10:43:47;;;;;;;12.90;5.83;;;8.60;99.90;;;;;;4939171;28;36973;-78
2023/11/18 10:46:15;;;;;;;19.80;6.83;;;8.60;99.90;;;;;;4935575;28;36106;-78
2023/11/18 10:48:47;;;;;;;16.00;6.20;;;8.60;99.90;;;;;;4947791;28;38129;-78
2023/11/18 10:51:16;;;;;;;16.17;5.80;;;8.60;99.90;;;;;;4925192;28;38395;-78
2023/11/18 10:53:53;;;;;;;15.40;6.40;;;8.60;99.90;;;;;;4925503;28;37161;-77
2023/11/18 10:56:26;;;;;;;17.40;6.77;;;8.70;99.90;;;;;;4928294;28;37053;-78
2023/11/18 10:58:58;;;;;;;18.33;6.70;;;8.70;99.90;;;;;;4925418;28;37755;-77
2023/11/18 11:01:42;;;;;;;12.47;6.07;;;8.70;99.90;;;;;;4928405;28;37507;-78
2023/11/18 11:04:10;;;;;;;20.57;6.00;;;8.70;99.90;;;;;;4927782;28;37053;-76
2023/11/18 11:06:52;;;;;;;16.53;6.37;;;8.70;99.90;;;;;;4926041;28;37023;-77
2023/11/18 11:09:27;;;;;;;13.90;6.03;;;8.70;99.90;;;;;;4946344;28;38832;-79
2023/11/18 11:12:03;;;;;;;13.80;5.57;;;8.70;99.90;;;;;;4954593;28;38336;-79
2023/11/18 11:14:41;;;;;;;13.40;5.67;;;8.80;99.90;;;;;;4936706;28;47779;-78
2023/11/18 11:17:25;;;;;;;10.17;5.00;;;8.80;99.90;;;;;;4938505;28;36880;-78
2023/11/18 11:20:23;;;;;;;14.60;6.43;;;8.80;99.90;;;;;;4948191;28;38004;-77
2023/11/18 11:23:07;;;;;;;13.83;5.33;;;8.80;99.90;;;;;;4930177;28;47133;-78
2023/11/18 11:25:50;;;;;;;10.73;5.00;;;8.80;99.90;;;;;;4950515;28;47045;-79
2023/11/18 11:28:21;;;;;;;13.43;5.05;;;8.90;99.90;;;;;;4932952;28;36179;-78
2023/11/18 11:31:12;;;;;;;11.37;5.00;;;8.90;99.90;;;;;;4950262;28;38303;-77
2023/11/18 11:33:51;;;;;;;10.93;5.37;;;8.90;99.90;;;;;;4934281;28;47463;-77
2023/11/18 11:36:24;;;;;;;10.20;5.27;;;8.90;99.90;;;;;;4951578;28;38081;-78
2023/11/18 11:38:55;;;;;;;8.32;4.95;;;8.90;99.90;;;;;;4934733;28;35952;-78
2023/11/18 11:41:34;;;;;;;9.50;4.78;;;8.90;99.90;;;;;;4954201;28;38740;-79
2023/11/18 11:44:01;;;;;;;12.87;5.00;;;8.90;99.90;;;;;;4954771;28;38362;-79
2023/11/18 11:46:33;;;;;;;11.57;5.33;;;8.90;99.90;;;;;;4936521;28;38198;-79
2023/11/18 11:49:17;;;;;;;13.15;6.03;;;8.90;99.90;;;;;;4956534;28;37288;-78
2023/11/18 11:51:48;;;;;;;12.03;5.13;;;8.90;99.90;;;;;;4933209;28;47270;-77
2023/11/18 11:54:28;;;;;;;10.63;5.27;;;8.90;99.90;;;;;;4953553;28;39307;-77
2023/11/18 11:56:59;;;;;;;9.97;4.60;;;8.90;99.90;;;;;;4955935;28;37918;-78
2023/11/18 11:59:56;;;;;;;7.57;4.77;;;8.90;99.90;;;;;;4931153;28;35912;-78
2023/11/18 12:02:25;;;;;;;8.07;4.93;;;9.00;99.90;;;;;;4935698;28;39570;-78
2023/11/18 12:04:56;;;;;;;7.10;5.00;;;8.90;99.90;;;;;;4930380;28;37291;-78
2023/11/18 12:07:27;;;;;;;8.27;4.40;;;9.00;99.90;;;;;;4944724;28;38774;-76
2023/11/18 12:09:58;;;;;;;9.73;4.70;;;9.00;99.90;;;;;;4929771;28;36109;-80
2023/11/18 12:12:26;;;;;;;7.10;4.37;;;9.00;99.90;;;;;;4945879;28;40670;-78
2023/11/18 12:15:17;;;;;;;7.63;4.20;;;9.00;99.90;;;;;;4942275;28;38181;-77
2023/11/18 12:17:55;;;;;;;6.20;4.10;;;9.00;99.90;;;;;;4922202;28;47614;-78
2023/11/18 12:20:47;;;;;;;8.87;4.00;;;9.00;99.90;;;;;;4926299;28;36269;-78
2023/11/18 12:23:15;;;;;;;7.80;4.00;;;9.00;99.90;;;;;;4927106;28;37850;-79
2023/11/18 12:25:42;;;;;;;8.53;4.13;;;9.00;99.90;;;;;;4927998;28;37564;-77
2023/11/18 12:28:09;;;;;;;7.13;3.73;;;9.00;99.90;;;;;;4926349;28;36980;-78
2023/11/18 12:30:37;;;;;;;5.93;3.97;;;9.00;99.90;;;;;;4926552;28;37003;-77
2023/11/18 12:33:18;;;;;;;6.30;4.13;;;9.00;99.90;;;;;;4935021;28;37713;-77
2023/11/18 12:35:50;;;;;;;5.83;4.00;;;9.00;99.90;;;;;;4926194;28;38721;-77
2023/11/18 12:38:34;;;;;;;6.10;3.95;;;9.00;99.90;;;;;;4940951;28;37789;-77
2023/11/18 12:41:11;;;;;;;6.43;3.67;;;9.00;99.90;;;;;;4925092;28;35971;-77
2023/11/18 12:43:50;;;;;;;9.30;5.40;;;9.00;99.90;;;;;;4941461;28;48284;-79
2023/11/18 12:46:49;;;;;;;7.00;4.20;;;9.00;99.90;;;;;;4926039;28;38838;-78
2023/11/18 12:49:16;;;;;;;5.07;3.80;;;9.00;99.90;;;;;;4931246;28;37739;-78
2023/11/18 12:51:44;;;;;;;6.40;3.83;;;9.00;99.90;;;;;;4932402;28;37088;-79
2023/11/18 12:54:12;;;;;;;4.73;4.00;;;9.00;99.90;;;;;;4953565;28;38668;-77
2023/11/18 12:56:38;;;;;;;5.17;4.07;;;9.00;99.90;;;;;;4935559;28;37930;-78
2023/11/18 12:59:12;;;;;;;4.87;3.70;;;9.00;99.90;;;;;;4934639;28;36585;-78
2023/11/18 13:01:41;;;;;;;5.70;3.67;;;9.00;99.90;;;;;;4932593;28;36110;-77